Time;durP1;ratioP1;P1;durP2;ratioP2;P2;SDS_P1;SDS_P2;PMS_P1;PMS_P2;Temp;Humidity;BMP_temperature;BMP_pressure;BME280_temperature;BME280_humidity;BME280_pressure;Samples;Min_cycle;Max_cycle;Signal;HPM_P1;HPM_P2
2021/12/30 00:01:12;;;;;;;2.60;0.50;;;;;;;13.71;78.18;98872.19;5159577;28;20057;-82
2021/12/30 00:04:03;;;;;;;3.58;0.70;;;;;;;14.12;76.02;98874.84;5174046;28;20042;-82
2021/12/30 00:06:53;;;;;;;0.75;0.60;;;;;;;14.13;75.83;98889.84;5153400;28;20085;-81
2021/12/30 00:09:44;;;;;;;2.53;0.60;;;;;;;13.59;77.81;98888.53;5181462;28;20512;-82
2021/12/30 00:12:34;;;;;;;0.77;0.70;;;;;;;13.91;76.36;98886.88;5170808;28;20057;-82
2021/12/30 00:15:25;;;;;;;1.73;0.88;;;;;;;13.63;77.06;98881.84;5167304;28;20049;-82
2021/12/30 00:18:16;;;;;;;1.73;0.82;;;;;;;13.66;77.09;98893.19;5182406;28;20053;-81
2021/12/30 00:21:07;;;;;;;2.83;0.93;;;;;;;13.40;77.59;98892.31;5180258;28;20060;-81
2021/12/30 00:23:58;;;;;;;4.88;0.80;;;;;;;13.80;76.49;98919.16;5157901;28;20061;-82
2021/12/30 00:26:48;;;;;;;2.08;0.90;;;;;;;13.43;77.85;98931.13;5169324;28;20056;-81
2021/12/30 00:29:39;;;;;;;2.58;1.02;;;;;;;13.83;75.75;98929.50;5168659;28;20065;-81
2021/12/30 00:32:30;;;;;;;2.92;0.80;;;;;;;13.78;75.90;98929.19;5169134;28;20045;-82
2021/12/30 00:35:20;;;;;;;1.23;0.68;;;;;;;13.59;76.01;98919.66;5168291;28;20154;-81
2021/12/30 00:38:11;;;;;;;5.00;0.90;;;;;;;13.50;77.05;98961.44;5166726;28;20419;-80
2021/12/30 00:41:02;;;;;;;2.03;0.80;;;;;;;14.10;74.31;98955.84;5181417;28;20060;-81
2021/12/30 00:43:52;;;;;;;3.13;0.77;;;;;;;13.76;74.50;98923.19;5173164;28;20049;-80
2021/12/30 00:46:43;;;;;;;3.80;0.75;;;;;;;13.77;74.67;98940.81;5189240;28;20052;-83
2021/12/30 00:49:33;;;;;;;5.55;0.88;;;;;;;13.23;76.26;98932.38;5160965;28;20049;-81
2021/12/30 00:52:24;;;;;;;5.38;0.82;;;;;;;13.15;76.44;98936.69;5190175;28;20129;-81
2021/12/30 00:55:15;;;;;;;2.33;0.80;;;;;;;13.43;75.48;98947.09;5174655;28;20060;-82
2021/12/30 00:58:07;;;;;;;5.68;0.98;;;;;;;13.28;76.49;98965.56;5172983;28;20107;-81
2021/12/30 01:00:59;;;;;;;3.42;0.90;;;;;;;13.22;76.16;98954.69;5174213;28;20076;-81
2021/12/30 01:03:50;;;;;;;2.90;0.98;;;;;;;13.71;74.67;98984.09;5188878;28;20045;-82
2021/12/30 01:06:40;;;;;;;3.65;0.80;;;;;;;13.30;76.06;98981.34;5186735;28;20100;-82
2021/12/30 01:09:30;;;;;;;2.35;0.90;;;;;;;13.23;74.56;98946.53;5187025;28;20053;-81
2021/12/30 01:12:20;;;;;;;3.78;0.98;;;;;;;13.72;74.36;98986.63;5191519;28;20056;-79
2021/12/30 01:15:13;;;;;;;4.53;1.10;;;;;;;13.46;74.85;98980.56;5166630;28;20126;-81
2021/12/30 01:18:25;;;;;;;3.78;0.90;;;;;;;13.56;74.54;98986.59;5180048;28;20522;-80
2021/12/30 01:21:15;;;;;;;2.90;1.08;;;;;;;13.45;75.48;99003.72;5192228;28;20076;-80
2021/12/30 01:24:06;;;;;;;3.13;0.70;;;;;;;13.14;76.89;98998.06;5179359;28;20052;-81
2021/12/30 01:26:56;;;;;;;3.60;1.08;;;;;;;13.54;74.71;98972.59;5165718;28;20044;-79
2021/12/30 01:29:48;;;;;;;4.00;0.80;;;;;;;14.22;72.57;99019.50;5185123;28;20096;-80
2021/12/30 01:32:39;;;;;;;1.90;0.73;;;;;;;14.19;72.08;99017.16;5185689;28;20098;-80
2021/12/30 01:35:30;;;;;;;8.32;1.00;;;;;;;14.15;72.38;99002.50;5164569;28;20034;-81
2021/12/30 01:38:20;;;;;;;2.88;0.70;;;;;;;13.68;73.31;98989.78;5183853;28;20045;-82
2021/12/30 01:41:11;;;;;;;3.33;0.60;;;;;;;13.63;74.06;99015.06;5160226;28;20049;-81
2021/12/30 01:44:02;;;;;;;2.05;0.73;;;;;;;13.79;74.42;99018.78;5193614;28;20046;-82
2021/12/30 01:46:53;;;;;;;3.75;1.08;;;;;;;14.09;72.81;99012.00;5190163;28;20065;-82
2021/12/30 01:49:43;;;;;;;5.32;1.00;;;;;;;14.27;71.33;99042.00;5190229;28;20069;-82
2021/12/30 01:52:34;;;;;;;2.55;0.90;;;;;;;13.33;74.71;99023.63;5177612;28;20163;-82
2021/12/30 01:55:25;;;;;;;3.10;0.70;;;;;;;13.50;74.53;99054.66;5179234;28;20053;-82
2021/12/30 01:58:16;;;;;;;4.20;0.80;;;;;;;13.56;74.44;99064.69;5198850;28;20073;-80
2021/12/30 02:01:06;;;;;;;2.63;0.90;;;;;;;14.03;72.02;99050.78;5196031;28;20133;-80
2021/12/30 02:03:57;;;;;;;6.43;1.42;;;;;;;13.89;73.21;99070.09;5183927;28;20056;-80
2021/12/30 02:06:48;;;;;;;4.18;1.00;;;;;;;14.30;71.53;99080.81;5191298;28;20052;-81
2021/12/30 02:09:38;;;;;;;3.75;0.98;;;;;;;13.65;73.63;99072.72;5158781;28;20133;-81
2021/12/30 02:12:34;;;;;;;2.35;0.77;;;;;;;13.53;74.52;99091.63;5171575;28;20153;-82
2021/12/30 02:15:24;;;;;;;2.15;1.05;;;;;;;13.29;73.87;99062.25;5172936;28;20084;-81
2021/12/30 02:18:14;;;;;;;5.68;1.17;;;;;;;13.43;74.03;99079.44;5171505;28;20052;-81
2021/12/30 02:21:04;;;;;;;2.47;0.90;;;;;;;13.51;72.98;99077.66;5186275;28;20050;-81
2021/12/30 02:23:57;;;;;;;4.13;0.95;;;;;;;13.61;73.69;99078.38;5186501;28;20048;-81
2021/12/30 02:26:47;;;;;;;3.88;1.15;;;;;;;13.76;72.71;99069.75;5185806;28;20133;-82
2021/12/30 02:29:38;;;;;;;2.53;1.23;;;;;;;12.97;75.15;99089.47;5171458;28;20497;-79
2021/12/30 02:32:28;;;;;;;4.40;1.27;;;;;;;13.38;73.33;99085.25;5180507;28;20042;-80
2021/12/30 02:35:19;;;;;;;4.72;1.00;;;;;;;13.53;73.17;99085.47;5172931;28;20046;-81
2021/12/30 02:38:09;;;;;;;6.43;1.15;;;;;;;13.57;73.34;99106.28;5182976;28;20069;-81
2021/12/30 02:41:01;;;;;;;4.20;1.33;;;;;;;13.58;73.83;99097.34;5174868;28;20049;-80
2021/12/30 02:43:52;;;;;;;6.85;1.20;;;;;;;14.13;71.33;99098.63;5180864;28;20053;-81
2021/12/30 02:46:42;;;;;;;4.55;1.10;;;;;;;13.80;72.66;99116.38;5176986;28;20119;-81
2021/12/30 02:49:39;;;;;;;2.10;0.83;;;;;;;13.59;73.48;99095.50;5175504;28;20125;-80
2021/12/30 02:52:29;;;;;;;;;;;;;;;13.94;72.06;99112.25;5202028;28;20038;-81
2021/12/30 02:55:20;;;;;;;5.13;0.90;;;;;;;14.33;70.08;99088.50;5188929;28;19951;-79
2021/12/30 02:58:11;;;;;;;6.15;1.25;;;;;;;14.39;70.37;99106.50;5175251;28;20053;-81
2021/12/30 03:01:21;;;;;;;4.13;0.90;;;;;;;14.30;70.32;99104.81;5158833;28;20049;-81
2021/12/30 03:04:12;;;;;;;3.60;1.00;;;;;;;14.32;70.74;99117.00;5183511;28;20053;-81
2021/12/30 03:07:02;;;;;;;4.90;1.25;;;;;;;14.26;70.73;99127.50;5188537;28;20575;-80
2021/12/30 03:09:53;;;;;;;5.15;1.15;;;;;;;13.95;71.54;99112.09;5168319;28;20124;-80
2021/12/30 03:12:43;;;;;;;3.78;1.10;;;;;;;13.94;71.09;99118.44;5173281;28;20060;-80
2021/12/30 03:15:34;;;;;;;4.07;1.55;;;;;;;14.39;69.96;99132.34;5187219;28;20153;-80
2021/12/30 03:18:25;;;;;;;2.22;0.80;;;;;;;14.55;69.85;99146.56;5173437;28;20057;-80
2021/12/30 03:21:17;;;;;;;4.28;0.80;;;;;;;14.16;71.14;99132.97;5185029;28;20057;-81
2021/12/30 03:24:07;;;;;;;1.75;0.90;;;;;;;14.50;69.88;99127.59;5159160;28;20057;-81
2021/12/30 03:26:57;;;;;;;4.22;0.77;;;;;;;14.40;70.58;99140.19;5172424;28;20125;-80
2021/12/30 03:29:48;;;;;;;5.63;1.10;;;;;;;14.10;71.73;99131.81;5186889;28;20183;-81
2021/12/30 03:32:38;;;;;;;2.13;1.00;;;;;;;13.94;72.54;99146.91;5169631;28;20057;-80
2021/12/30 03:35:28;;;;;;;3.90;0.80;;;;;;;14.36;71.03;99146.84;5172996;28;20112;-81
2021/12/30 03:38:19;;;;;;;3.67;0.80;;;;;;;14.53;71.15;99140.56;5171323;28;20057;-82
2021/12/30 03:41:11;;;;;;;2.88;0.65;;;;;;;13.92;72.38;99144.41;5154268;28;20053;-80
2021/12/30 03:44:02;;;;;;;3.85;0.80;;;;;;;14.52;70.53;99146.91;5173952;28;20029;-81
2021/12/30 03:46:52;;;;;;;1.50;0.70;;;;;;;14.55;70.85;99157.25;5158523;28;20100;-81
2021/12/30 03:49:45;;;;;;;1.48;0.70;;;;;;;14.33;71.08;99160.50;5184607;28;20515;-81
2021/12/30 03:52:35;;;;;;;1.27;0.60;;;;;;;14.64;70.43;99174.13;5182585;28;20073;-81
2021/12/30 03:55:28;;;;;;;2.30;0.80;;;;;;;14.71;70.19;99179.63;5193226;28;20112;-80
2021/12/30 03:58:18;;;;;;;3.22;0.80;;;;;;;14.94;69.84;99182.47;5188123;28;20057;-80
2021/12/30 04:01:10;;;;;;;2.17;0.73;;;;;;;14.83;69.78;99178.28;5199567;28;20052;-81
2021/12/30 04:04:01;;;;;;;1.10;0.70;;;;;;;14.84;69.55;99161.28;5184069;28;20052;-81
2021/12/30 04:06:52;;;;;;;0.85;0.60;;;;;;;15.01;69.66;99194.97;5184601;28;20045;-81
2021/12/30 04:09:43;;;;;;;1.38;0.50;;;;;;;15.02;69.14;99195.81;5166824;28;20129;-81
2021/12/30 04:12:34;;;;;;;2.45;0.52;;;;;;;14.84;70.21;99195.16;5172237;28;20408;-82
2021/12/30 04:15:24;;;;;;;2.00;0.65;;;;;;;14.91;69.92;99194.31;5175700;28;20057;-82
2021/12/30 04:18:14;;;;;;;3.78;0.70;;;;;;;14.95;69.40;99171.63;5158671;28;20046;-82
2021/12/30 04:21:04;;;;;;;2.10;1.30;;;;;;;15.08;69.50;99188.97;5173630;28;20618;-82
2021/12/30 04:23:54;;;;;;;2.28;0.57;;;;;;;15.06;69.45;99204.31;5197558;23;20049;-68
2021/12/30 04:26:50;;;;;;;0.88;0.60;;;;;;;15.20;69.35;99204.50;5181942;28;20101;-68
2021/12/30 04:29:41;;;;;;;4.10;0.77;;;;;;;15.31;69.37;99197.97;5180229;28;20046;-68
2021/12/30 04:32:31;;;;;;;1.90;0.57;;;;;;;14.98;71.49;99200.66;5182715;28;20041;-67
2021/12/30 04:35:21;;;;;;;2.60;0.60;;;;;;;14.93;71.79;99213.69;5181725;28;20700;-68
2021/12/30 04:38:12;;;;;;;1.38;0.60;;;;;;;14.90;72.83;99215.81;5179953;28;20132;-69
2021/12/30 04:41:03;;;;;;;1.42;0.30;;;;;;;15.07;72.00;99222.03;5177126;28;20048;-65
2021/12/30 04:43:54;;;;;;;0.57;0.40;;;;;;;15.00;72.03;99219.19;5167803;28;20040;-67
2021/12/30 04:46:44;;;;;;;1.95;0.70;;;;;;;15.17;71.99;99230.69;5175964;28;20211;-67
2021/12/30 04:49:34;;;;;;;3.10;0.57;;;;;;;15.19;72.33;99229.50;5174131;28;20056;-67
2021/12/30 04:52:25;;;;;;;0.43;0.35;;;;;;;14.92;73.31;99232.53;5180386;28;20549;-67
2021/12/30 04:55:15;;;;;;;0.95;0.57;;;;;;;14.94;73.24;99225.19;5179308;28;20124;-67
2021/12/30 04:58:05;;;;;;;3.63;1.20;;;;;;;15.00;73.35;99243.22;5179780;28;20049;-68
2021/12/30 05:00:55;;;;;;;2.83;1.00;;;;;;;15.02;72.74;99250.03;5181853;28;20050;-70
2021/12/30 05:03:48;;;;;;;5.38;1.02;;;;;;;14.88;73.00;99236.53;5181539;28;20036;-69
2021/12/30 05:06:39;;;;;;;1.55;0.60;;;;;;;14.94;73.02;99255.41;5181128;28;20050;-70
2021/12/30 05:09:31;;;;;;;1.35;0.50;;;;;;;14.92;73.54;99251.22;5181817;28;20053;-70
2021/12/30 05:12:21;;;;;;;2.42;0.80;;;;;;;14.84;73.81;99249.38;5175377;28;20507;-70
2021/12/30 05:15:12;;;;;;;2.95;0.70;;;;;;;15.12;72.55;99257.06;5167301;28;20049;-68
2021/12/30 05:18:04;;;;;;;1.50;0.50;;;;;;;15.10;71.56;99245.69;5165538;28;20045;-70
2021/12/30 05:20:54;;;;;;;2.80;0.80;;;;;;;15.13;72.01;99253.38;5180591;28;20528;-73
2021/12/30 05:23:44;;;;;;;5.60;0.85;;;;;;;15.20;71.48;99260.59;5179017;28;20057;-72
2021/12/30 05:26:34;;;;;;;1.52;0.60;;;;;;;14.87;71.35;99222.34;5180730;28;20120;-71
2021/12/30 05:29:24;;;;;;;0.88;0.60;;;;;;;15.26;71.05;99262.59;5179931;28;20061;-68
2021/12/30 05:32:15;;;;;;;1.88;0.50;;;;;;;15.28;71.19;99268.59;5177135;28;20056;-68
2021/12/30 05:35:07;;;;;;;1.90;0.60;;;;;;;15.32;70.18;99266.41;5181488;28;20057;-70
2021/12/30 05:37:58;;;;;;;3.67;0.70;;;;;;;15.02;71.54;99265.22;5179389;28;20546;-68
2021/12/30 05:40:48;;;;;;;1.95;0.50;;;;;;;15.12;70.68;99265.06;5180934;28;20135;-68
2021/12/30 05:43:38;;;;;;;2.60;0.50;;;;;;;15.05;70.93;99267.56;5181247;28;20131;-70
2021/12/30 05:46:29;;;;;;;3.20;0.57;;;;;;;15.09;71.59;99271.59;5180044;28;20139;-71
2021/12/30 05:49:19;;;;;;;4.65;0.70;;;;;;;14.83;71.98;99266.38;5162995;28;20109;-71
2021/12/30 05:52:11;;;;;;;6.85;0.95;;;;;;;14.83;72.14;99277.03;5163996;28;20050;-67
2021/12/30 05:55:01;;;;;;;2.55;0.80;;;;;;;14.69;72.77;99280.38;5180412;28;20042;-69
2021/12/30 05:57:54;;;;;;;1.17;0.85;;;;;;;14.85;71.60;99283.06;5179292;28;20088;-69
2021/12/30 06:00:44;;;;;;;3.75;0.65;;;;;;;14.87;72.38;99285.59;5180737;28;20170;-69
2021/12/30 06:03:35;;;;;;;1.13;0.50;;;;;;;14.60;73.18;99281.34;5180300;28;20112;-69
2021/12/30 06:06:25;;;;;;;5.15;0.60;;;;;;;14.53;73.39;99292.66;5179072;28;20076;-69
2021/12/30 06:09:15;;;;;;;2.95;0.70;;;;;;;14.56;73.16;99292.34;5184637;28;20061;-69
2021/12/30 06:12:05;;;;;;;0.98;0.70;;;;;;;14.55;73.75;99295.19;5180995;28;20053;-69
2021/12/30 06:14:55;;;;;;;1.70;0.60;;;;;;;14.56;73.79;99299.50;5184549;28;20095;-69
2021/12/30 06:17:45;;;;;;;2.53;0.70;;;;;;;14.42;73.93;99276.91;5184015;28;20057;-69
2021/12/30 06:20:35;;;;;;;1.58;0.60;;;;;;;14.94;72.09;99295.44;5181898;28;20056;-69
2021/12/30 06:23:25;;;;;;;2.25;0.50;;;;;;;14.62;73.33;99296.19;5183381;28;20104;-69
2021/12/30 06:26:15;;;;;;;3.83;0.50;;;;;;;14.64;73.06;99298.72;5180359;28;20045;-69
2021/12/30 06:29:05;;;;;;;1.33;0.55;;;;;;;14.56;73.95;99307.50;5184004;28;20080;-69
2021/12/30 06:31:55;;;;;;;0.95;0.45;;;;;;;14.57;73.65;99301.19;5184864;28;20200;-69
2021/12/30 06:34:46;;;;;;;2.75;0.65;;;;;;;14.25;74.82;99300.03;5184588;28;20049;-68
2021/12/30 06:37:37;;;;;;;2.55;0.60;;;;;;;14.51;73.83;99300.00;5184153;28;20104;-68
2021/12/30 06:40:28;;;;;;;1.00;0.50;;;;;;;14.51;73.86;99316.00;5183474;28;20045;-68
2021/12/30 06:43:18;;;;;;;0.50;0.50;;;;;;;14.47;74.76;99316.44;5180242;28;20037;-68
2021/12/30 06:46:10;;;;;;;0.73;0.40;;;;;;;14.28;75.33;99318.38;5182977;28;20053;-68
2021/12/30 06:49:01;;;;;;;1.58;0.68;;;;;;;14.56;73.79;99316.34;5184039;28;20583;-68
2021/12/30 06:51:51;;;;;;;0.55;0.50;;;;;;;14.62;73.95;99320.22;5185723;28;20648;-68
2021/12/30 06:54:42;;;;;;;2.35;0.45;;;;;;;14.71;73.48;99315.75;5183049;28;20562;-71
2021/12/30 06:57:39;;;;;;;0.88;0.50;;;;;;;14.62;73.65;99322.88;5182226;28;20060;-68
2021/12/30 07:00:29;;;;;;;1.63;0.32;;;;;;;14.60;73.68;99327.53;5183369;28;20132;-68
2021/12/30 07:03:19;;;;;;;1.10;0.60;;;;;;;14.58;73.71;99332.22;5181558;28;20053;-68
2021/12/30 07:06:10;;;;;;;1.65;0.47;;;;;;;14.51;74.48;99332.03;5182038;28;20057;-68
2021/12/30 07:09:00;;;;;;;6.00;0.80;;;;;;;14.57;74.15;99339.38;5179859;28;20774;-70
2021/12/30 07:11:51;;;;;;;0.85;0.57;;;;;;;14.46;73.66;99312.13;5179823;28;20089;-69
2021/12/30 07:14:41;;;;;;;1.13;0.70;;;;;;;14.54;74.24;99352.22;5184204;28;20081;-70
2021/12/30 07:17:32;;;;;;;0.85;0.50;;;;;;;14.54;74.52;99350.38;5183258;28;20068;-69
2021/12/30 07:20:22;;;;;;;3.17;0.40;;;;;;;14.71;73.42;99358.44;5176931;28;20358;-69
2021/12/30 07:23:12;;;;;;;3.80;0.60;;;;;;;14.66;73.36;99360.75;5182601;28;20104;-67
2021/12/30 07:26:04;;;;;;;0.52;0.32;;;;;;;14.60;74.05;99367.56;5176679;28;20064;-67
2021/12/30 07:28:54;;;;;;;2.28;0.70;;;;;;;14.77;73.54;99368.50;5183314;28;20857;-67
2021/12/30 07:31:44;;;;;;;1.45;0.60;;;;;;;14.66;73.41;99380.28;5153133;28;20053;-68
2021/12/30 07:34:34;;;;;;;0.25;0.20;;;;;;;14.55;74.64;99380.56;5182949;28;20415;-70
2021/12/30 07:37:24;;;;;;;3.03;0.40;;;;;;;14.70;73.93;99384.31;5168764;28;20093;-70
2021/12/30 07:40:15;;;;;;;1.55;0.30;;;;;;;15.22;71.74;99380.59;5182918;28;20149;-69
2021/12/30 07:43:05;;;;;;;8.05;0.63;;;;;;;15.16;71.83;99384.75;5168031;28;20181;-71
2021/12/30 07:45:56;;;;;;;1.70;0.57;;;;;;;15.27;71.79;99391.66;5162363;28;20065;-70
2021/12/30 07:48:46;;;;;;;0.98;0.47;;;;;;;15.09;72.53;99391.75;5173480;28;20084;-70
2021/12/30 07:51:36;;;;;;;1.00;0.50;;;;;;;15.00;73.06;99390.91;5189433;28;20195;-71
2021/12/30 07:54:26;;;;;;;0.75;0.30;;;;;;;14.83;73.29;99401.69;5182298;28;20635;-70
2021/12/30 07:57:21;;;;;;;1.02;0.60;;;;;;;15.11;72.48;99396.94;5170062;28;20151;-68
2021/12/30 08:00:14;;;;;;;2.50;0.60;;;;;;;15.08;72.66;99386.59;5181251;28;20527;-69
2021/12/30 08:03:03;;;;;;;1.25;0.45;;;;;;;15.33;70.88;99382.97;5165436;28;20108;-72
2021/12/30 08:05:53;;;;;;;0.65;0.50;;;;;;;15.07;72.82;99390.28;5177800;28;20053;-71
2021/12/30 08:08:44;;;;;;;1.45;0.50;;;;;;;14.86;73.01;99404.88;5174627;28;20053;-69
2021/12/30 08:11:34;;;;;;;1.42;0.43;;;;;;;14.95;73.12;99408.41;5174394;28;20050;-70
2021/12/30 08:14:24;;;;;;;2.30;0.60;;;;;;;15.02;73.25;99406.75;5178932;28;20103;-69
2021/12/30 08:17:14;;;;;;;0.80;0.63;;;;;;;15.04;72.72;99413.63;5170333;28;20057;-71
2021/12/30 08:20:07;;;;;;;0.70;0.60;;;;;;;15.24;72.55;99416.84;5178211;28;20107;-71
2021/12/30 08:22:58;;;;;;;2.45;0.80;;;;;;;14.85;72.39;99371.16;5174362;28;20053;-69
2021/12/30 08:25:50;;;;;;;2.65;1.00;;;;;;;15.21;72.00;99419.00;5172189;28;20049;-70
2021/12/30 08:28:40;;;;;;;1.88;0.60;;;;;;;15.30;72.37;99418.03;5170840;28;20053;-71
2021/12/30 08:31:30;;;;;;;5.25;0.60;;;;;;;15.35;72.09;99410.34;5174417;28;20049;-71
2021/12/30 08:34:22;;;;;;;1.75;0.32;;;;;;;15.72;70.64;99414.44;5177706;28;20104;-70
2021/12/30 08:37:13;;;;;;;2.88;0.50;;;;;;;15.57;71.02;99418.75;5169840;28;20057;-67
2021/12/30 08:40:06;;;;;;;0.52;0.52;;;;;;;15.50;71.52;99419.41;5166283;28;20045;-70
2021/12/30 08:42:56;;;;;;;0.98;0.30;;;;;;;15.57;71.23;99418.75;5173556;28;20264;-68
2021/12/30 08:45:47;;;;;;;1.85;0.40;;;;;;;15.59;70.96;99430.09;5166206;28;20519;-68
2021/12/30 08:48:38;;;;;;;1.00;0.40;;;;;;;15.88;69.63;99427.81;5173528;28;20053;-72
2021/12/30 08:51:29;;;;;;;0.60;0.38;;;;;;;15.80;70.31;99417.13;5177943;28;20061;-70
2021/12/30 08:54:19;;;;;;;2.05;0.30;;;;;;;15.84;70.33;99431.00;5177034;28;20112;-67
2021/12/30 08:57:10;;;;;;;1.40;0.40;;;;;;;15.73;70.82;99440.19;5173726;28;20104;-68
2021/12/30 09:00:01;;;;;;;1.38;0.40;;;;;;;15.88;69.89;99446.53;5176533;28;20140;-69
2021/12/30 09:02:53;;;;;;;1.85;0.20;;;;;;;15.91;70.69;99435.50;5157403;28;20698;-69
2021/12/30 09:05:44;;;;;;;1.40;0.40;;;;;;;16.17;69.06;99435.31;5171323;28;20044;-71
2021/12/30 09:08:35;;;;;;;0.50;0.20;;;;;;;16.11;69.62;99422.63;5168560;28;20140;-69
2021/12/30 09:11:25;;;;;;;2.88;0.43;;;;;;;16.31;69.18;99427.59;5165743;28;20060;-67
2021/12/30 09:14:18;;;;;;;3.30;0.50;;;;;;;16.02;70.05;99438.84;5173139;28;20050;-70
2021/12/30 09:17:08;;;;;;;2.35;0.30;;;;;;;16.12;69.06;99410.91;5153020;28;20092;-70
2021/12/30 09:19:58;;;;;;;0.75;0.40;;;;;;;16.11;70.05;99429.81;5176679;28;20049;-69
2021/12/30 09:22:50;;;;;;;0.65;0.50;;;;;;;16.15;69.04;99425.78;5176059;28;20500;-70
2021/12/30 09:25:40;;;;;;;1.30;0.40;;;;;;;16.03;70.01;99424.47;5181322;28;20061;-71
2021/12/30 09:28:31;;;;;;;2.28;0.90;;;;;;;15.94;70.65;99415.63;5176545;28;20045;-71
2021/12/30 09:31:21;;;;;;;2.53;0.55;;;;;;;16.07;69.79;99433.84;5178927;28;20191;-70
2021/12/30 09:34:12;;;;;;;1.42;0.60;;;;;;;16.22;70.06;99432.13;5162351;28;20135;-72
2021/12/30 09:37:02;;;;;;;2.08;0.40;;;;;;;16.15;71.04;99445.34;5182002;28;20064;-69
2021/12/30 09:39:54;;;;;;;1.13;0.60;;;;;;;16.29;69.37;99441.16;5188603;28;20127;-71
2021/12/30 09:43:00;;;;;;;2.50;0.80;;;;;;;16.35;69.58;99445.81;5178787;28;20543;-70
2021/12/30 09:45:51;;;;;;;1.17;0.57;;;;;;;16.37;69.64;99451.03;5176901;28;20057;-70
2021/12/30 09:48:43;;;;;;;0.50;0.40;;;;;;;16.67;68.02;99444.91;5177544;28;20622;-71
2021/12/30 09:51:35;;;;;;;1.15;0.50;;;;;;;16.42;69.48;99440.63;5184589;28;20052;-69
2021/12/30 09:54:24;;;;;;;0.43;0.30;;;;;;;16.66;68.44;99456.63;5176997;28;20104;-70
2021/12/30 09:57:14;;;;;;;1.73;0.52;;;;;;;16.49;69.85;99459.50;5178335;28;20056;-72
2021/12/30 10:00:08;;;;;;;1.63;0.60;;;;;;;16.44;70.11;99458.19;5166463;28;20041;-71
2021/12/30 10:03:00;;;;;;;1.33;0.80;;;;;;;16.51;68.94;99434.25;5175023;28;20058;-71
2021/12/30 10:05:52;;;;;;;4.65;0.98;;;;;;;16.89;67.71;99461.28;5169235;28;20064;-72
2021/12/30 10:08:53;;;;;;;4.15;0.60;;;;;;;16.94;67.46;99439.34;5173125;28;20061;-70
2021/12/30 10:11:53;;;;;;;1.85;0.65;;;;;;;16.80;68.85;99465.00;5174268;28;20053;-70
2021/12/30 10:14:43;;;;;;;0.85;0.70;;;;;;;16.80;68.72;99473.88;5171985;28;20120;-70
2021/12/30 10:17:34;;;;;;;3.45;0.50;;;;;;;16.67;68.85;99463.66;5173790;28;20082;-71
2021/12/30 10:20:30;;;;;;;1.05;0.60;;;;;;;16.66;69.38;99478.06;5171225;28;20046;-70
2021/12/30 10:23:24;;;;;;;2.50;0.80;;;;;;;16.74;69.82;99476.38;5175441;28;20065;-71
2021/12/30 10:26:16;;;;;;;0.80;0.45;;;;;;;16.75;69.18;99476.22;5161319;28;20053;-70
2021/12/30 10:29:06;;;;;;;0.82;0.60;;;;;;;16.73;70.21;99488.91;5175003;28;20069;-70
2021/12/30 10:31:56;;;;;;;1.27;0.50;;;;;;;16.78;70.41;99477.72;5177632;28;20120;-69
2021/12/30 10:35:14;;;;;;;1.02;0.68;;;;;;;16.90;70.55;99487.88;5174360;28;20408;-70
2021/12/30 10:38:09;;;;;;;2.33;0.95;;;;;;;16.94;69.44;99482.19;5175045;28;20602;-71
2021/12/30 10:41:02;;;;;;;2.92;0.90;;;;;;;17.14;68.17;99486.13;5177211;28;20050;-70
2021/12/30 10:43:55;;;;;;;3.37;0.80;;;;;;;17.06;68.44;99459.38;5173387;28;20423;-69
2021/12/30 10:46:46;;;;;;;0.65;0.57;;;;;;;17.31;68.04;99479.69;5171155;28;20060;-69
2021/12/30 10:49:37;;;;;;;1.80;0.60;;;;;;;17.52;67.13;99487.13;5174267;28;20116;-69
2021/12/30 10:52:28;;;;;;;1.27;0.65;;;;;;;17.36;67.60;99487.22;5168876;28;20129;-69
2021/12/30 10:55:20;;;;;;;1.88;0.77;;;;;;;17.29;68.92;99462.13;5177116;28;20507;-68
2021/12/30 10:58:23;;;;;;;2.28;0.88;;;;;;;17.23;69.98;99485.09;5175552;28;20081;-69
2021/12/30 11:01:20;;;;;;;4.65;0.82;;;;;;;17.38;68.49;99477.13;5175377;28;20057;-69
2021/12/30 11:04:11;;;;;;;0.30;0.30;;;;;;;17.43;67.03;99485.50;5174267;28;20136;-69
2021/12/30 11:07:01;;;;;;;0.35;0.35;;;;;;;17.36;67.55;99450.50;5162390;28;20060;-69
2021/12/30 11:09:58;;;;;;;1.25;0.70;;;;;;;17.35;66.59;99480.16;5175958;28;20038;-71
2021/12/30 11:12:48;;;;;;;0.60;0.57;;;;;;;16.85;67.47;99474.19;5177249;28;20045;-74
2021/12/30 11:15:39;;;;;;;0.32;0.25;;;;;;;17.00;67.19;99471.63;5175954;28;20091;-73
2021/12/30 11:18:40;;;;;;;0.30;0.30;;;;;;;17.04;66.66;99472.94;5179732;28;20108;-69
2021/12/30 11:21:40;;;;;;;1.10;0.35;;;;;;;17.23;65.73;99466.31;5182958;28;20053;-74
2021/12/30 11:24:31;;;;;;;0.55;0.28;;;;;;;16.94;66.87;99476.84;5140583;28;1106382;-68
2021/12/30 11:27:23;;;;;;;1.90;0.10;;;;;;;17.38;66.63;99471.75;5164628;28;20049;-74
2021/12/30 11:30:16;;;;;;;0.43;0.30;;;;;;;17.64;65.90;99479.50;5181048;28;20054;-71
2021/12/30 11:33:07;;;;;;;0.10;0.10;;;;;;;16.93;67.23;99475.19;5167660;28;20223;-72
2021/12/30 11:35:57;;;;;;;0.40;0.10;;;;;;;16.76;67.85;99459.16;5179820;28;20096;-74
2021/12/30 11:38:48;;;;;;;0.15;0.13;;;;;;;17.28;66.80;99463.13;5165464;28;20057;-71
2021/12/30 11:41:40;;;;;;;0.20;0.20;;;;;;;17.16;66.60;99460.00;5182534;28;20459;-71
2021/12/30 11:44:37;;;;;;;0.17;0.17;;;;;;;17.48;65.86;99480.44;5185466;28;20081;-67
2021/12/30 11:47:36;;;;;;;0.32;0.20;;;;;;;17.20;66.18;99472.03;5178640;28;20424;-71
2021/12/30 11:50:36;;;;;;;1.48;0.20;;;;;;;17.36;66.42;99466.59;5179517;28;20148;-72
2021/12/30 11:53:27;;;;;;;3.13;0.30;;;;;;;16.98;68.38;99475.47;5185912;28;20056;-71
2021/12/30 11:56:22;;;;;;;0.20;0.15;;;;;;;17.06;67.30;99456.72;5177294;28;20532;-73
2021/12/30 11:59:12;;;;;;;1.13;0.30;;;;;;;17.59;65.31;99465.78;5175147;28;20080;-67
2021/12/30 12:02:25;;;;;;;0.22;0.22;;;;;;;17.49;66.23;99465.19;5170870;28;20051;-67
2021/12/30 12:05:39;;;;;;;0.70;0.65;;;;;;;17.10;67.07;99461.53;5174897;28;20092;-68
2021/12/30 12:08:42;;;;;;;0.70;0.60;;;;;;;16.54;68.18;99458.00;5175800;28;20044;-68
2021/12/30 12:11:53;;;;;;;0.82;0.68;;;;;;;17.25;67.56;99458.97;5176518;28;20291;-68
2021/12/30 12:14:49;;;;;;;0.80;0.70;;;;;;;17.56;65.41;99461.63;5181826;28;20045;-69
2021/12/30 12:17:45;;;;;;;0.70;0.60;;;;;;;17.61;64.83;99456.56;5176985;28;20424;-68
2021/12/30 12:20:35;;;;;;;0.60;0.60;;;;;;;17.77;64.84;99461.00;5179969;28;20106;-69
2021/12/30 12:23:45;;;;;;;0.30;0.30;;;;;;;17.90;65.13;99462.25;5178335;28;20348;-68
2021/12/30 12:26:39;;;;;;;1.83;0.20;;;;;;;17.69;64.63;99461.03;5171531;28;20375;-67
2021/12/30 12:29:52;;;;;;;1.23;0.20;;;;;;;17.42;66.25;99472.25;5172462;28;20068;-69
2021/12/30 12:32:43;;;;;;;1.55;0.28;;;;;;;16.97;66.91;99463.09;5164713;28;20944;-69
2021/12/30 12:35:40;;;;;;;0.35;0.20;;;;;;;17.71;65.30;99466.22;5178274;28;20050;-68
2021/12/30 12:38:36;;;;;;;0.32;0.30;;;;;;;17.49;65.97;99466.03;5172434;28;20678;-68
2021/12/30 12:41:31;;;;;;;0.50;0.30;;;;;;;17.53;65.20;99461.97;5183400;28;20060;-69
2021/12/30 12:44:21;;;;;;;0.50;0.40;;;;;;;17.64;64.49;99468.75;5170645;28;20042;-68
2021/12/30 12:47:15;;;;;;;0.68;0.50;;;;;;;17.90;63.61;99462.25;5160195;28;20171;-71
2021/12/30 12:50:07;;;;;;;1.65;0.10;;;;;;;17.66;65.33;99461.38;5169398;28;20181;-68
2021/12/30 12:52:57;;;;;;;0.45;0.28;;;;;;;16.96;66.99;99458.75;5171898;28;20042;-69
2021/12/30 12:55:48;;;;;;;0.93;0.20;;;;;;;17.34;65.62;99457.88;5169448;28;20053;-69
2021/12/30 12:58:47;;;;;;;0.40;0.20;;;;;;;17.41;65.26;99455.34;5170045;28;20064;-69
2021/12/30 13:01:40;;;;;;;1.00;0.25;;;;;;;17.32;65.27;99457.25;5171653;28;20085;-68
2021/12/30 13:04:30;;;;;;;0.55;0.22;;;;;;;16.77;67.50;99460.81;5183208;28;20124;-69
2021/12/30 13:07:21;;;;;;;1.13;0.45;;;;;;;17.42;65.81;99466.88;5181051;28;20136;-70
2021/12/30 13:10:19;;;;;;;0.17;0.17;;;;;;;16.59;67.56;99468.22;5178072;28;20057;-69
2021/12/30 13:13:09;;;;;;;0.47;0.20;;;;;;;16.90;66.18;99444.22;5174582;28;20184;-69
2021/12/30 13:16:02;;;;;;;0.65;0.20;;;;;;;16.76;67.91;99458.31;5166672;28;20554;-70
2021/12/30 13:19:04;;;;;;;0.52;0.30;;;;;;;16.82;66.95;99458.47;5180540;28;20052;-69
2021/12/30 13:22:01;;;;;;;0.88;0.30;;;;;;;16.47;68.76;99461.53;5177450;28;20045;-70
2021/12/30 13:25:00;;;;;;;1.33;0.40;;;;;;;16.46;68.41;99463.38;5180095;28;20546;-69
2021/12/30 13:27:53;;;;;;;0.68;0.35;;;;;;;16.84;67.75;99463.63;5178491;28;20115;-68
2021/12/30 13:30:50;;;;;;;0.65;0.50;;;;;;;16.70;67.62;99465.16;5174117;28;20050;-68